createdAt,value
2018-01-22T00:00:57.323Z,1014.61
2018-01-22T00:01:36.335Z,1014.59
2018-01-22T00:02:36.340Z,1014.61
2018-01-22T00:03:36.372Z,1014.60
2018-01-22T00:04:36.378Z,1014.57
2018-01-22T00:05:36.394Z,1014.58
2018-01-22T00:06:57.431Z,1014.51
2018-01-22T00:07:36.483Z,1014.45
2018-01-22T00:08:36.456Z,1014.39
2018-01-22T00:09:36.475Z,1014.38
2018-01-22T00:10:36.491Z,1014.33
2018-01-22T00:11:37.189Z,1014.34
2018-01-22T00:12:57.551Z,1014.32
2018-01-22T00:13:36.580Z,1014.29
2018-01-22T00:14:36.567Z,1014.28
2018-01-22T00:15:36.589Z,1014.29
2018-01-22T00:16:36.601Z,1014.29
2018-01-22T00:17:36.620Z,1014.30
2018-01-22T00:18:57.715Z,1014.31
2018-01-22T00:19:36.658Z,1014.32
2018-01-22T00:20:36.691Z,1014.34
2018-01-22T00:21:36.705Z,1014.27
2018-01-22T00:22:36.721Z,1014.23
2018-01-22T00:23:36.745Z,1014.18
2018-01-22T00:24:57.778Z,1014.21
2018-01-22T00:25:36.771Z,1014.17
2018-01-22T00:26:36.796Z,1014.18
2018-01-22T00:27:36.815Z,1014.15
2018-01-22T00:28:36.835Z,1014.19
2018-01-22T00:29:36.853Z,1014.12
2018-01-22T00:30:57.886Z,1014.09
2018-01-22T00:31:36.889Z,1014.08
2018-01-22T00:32:36.911Z,1014.09
2018-01-22T00:33:36.933Z,1014.11
2018-01-22T00:34:36.950Z,1014.17
2018-01-22T00:35:36.974Z,1014.13
2018-01-22T00:36:58.008Z,1014.14
2018-01-22T00:37:37.010Z,1014.11
2018-01-22T00:38:37.012Z,1014.10
2018-01-22T00:39:37.036Z,1014.05
2018-01-22T00:40:37.052Z,1014.03
2018-01-22T00:41:37.074Z,1014.01
2018-01-22T00:42:58.114Z,1013.99
2018-01-22T00:43:37.115Z,1014.00
2018-01-22T00:44:37.131Z,1013.99
2018-01-22T00:45:37.153Z,1014.01
2018-01-22T00:46:37.173Z,1014.01
2018-01-22T00:47:37.196Z,1013.96
2018-01-22T00:48:58.232Z,1013.93
2018-01-22T00:49:37.231Z,1013.93
2018-01-22T00:50:37.248Z,1013.91
2018-01-22T00:51:37.270Z,1013.92
2018-01-22T00:52:37.289Z,1013.92
2018-01-22T00:53:37.300Z,1013.93
2018-01-22T00:54:58.336Z,1013.92
2018-01-22T00:55:37.351Z,1013.93
2018-01-22T00:56:37.362Z,1013.89
2018-01-22T00:57:37.373Z,1013.92
2018-01-22T00:58:37.398Z,1013.91
2018-01-22T00:59:37.418Z,1013.88
2018-01-22T01:00:58.473Z,1013.89
2018-01-22T01:01:37.463Z,1013.86
2018-01-22T01:02:37.487Z,1013.85
2018-01-22T01:03:37.485Z,1013.82
2018-01-22T01:04:37.517Z,1013.78
2018-01-22T01:05:37.536Z,1013.78
2018-01-22T01:06:58.568Z,1013.79
2018-01-22T01:07:37.571Z,1013.77
2018-01-22T01:08:37.584Z,1013.75
2018-01-22T01:09:37.605Z,1013.69
2018-01-22T01:10:37.628Z,1013.68
2018-01-22T01:11:37.653Z,1013.61
2018-01-22T01:12:58.677Z,1013.64
2018-01-22T01:13:37.688Z,1013.61
2018-01-22T01:14:37.767Z,1013.65
2018-01-22T01:15:37.725Z,1013.62
2018-01-22T01:16:37.739Z,1013.61
2018-01-22T01:17:37.769Z,1013.55
2018-01-22T01:18:58.799Z,1013.50
2018-01-22T01:19:37.799Z,1013.53
2018-01-22T01:20:37.819Z,1013.52
2018-01-22T01:21:37.847Z,1013.49
2018-01-22T01:22:37.855Z,1013.53
2018-01-22T01:23:37.875Z,1013.50
2018-01-22T01:24:58.909Z,1013.50
2018-01-22T01:25:37.915Z,1013.48
2018-01-22T01:26:37.927Z,1013.50
2018-01-22T01:27:37.956Z,1013.55
2018-01-22T01:28:37.967Z,1013.50
2018-01-22T01:29:38.002Z,1013.47
2018-01-22T01:30:59.028Z,1013.49
2018-01-22T01:31:38.033Z,1013.48
2018-01-22T01:32:38.047Z,1013.47
2018-01-22T01:33:38.066Z,1013.46
2018-01-22T01:34:38.098Z,1013.45
2018-01-22T01:35:38.106Z,1013.44
2018-01-22T01:36:59.137Z,1013.50
2018-01-22T01:37:38.137Z,1013.49
2018-01-22T01:38:38.163Z,1013.50
2018-01-22T01:39:38.182Z,1013.49
2018-01-22T01:40:38.221Z,1013.48
2018-01-22T01:41:38.218Z,1013.43
2018-01-22T01:42:59.254Z,1013.41
2018-01-22T01:43:38.256Z,1013.43
2018-01-22T01:44:38.309Z,1013.46
2018-01-22T01:45:38.290Z,1013.40
2018-01-22T01:46:38.313Z,1013.35
2018-01-22T01:47:38.325Z,1013.35
2018-01-22T01:48:59.362Z,1013.33
2018-01-22T01:49:38.371Z,1013.25
2018-01-22T01:50:38.396Z,1013.24
2018-01-22T01:51:38.404Z,1013.22
2018-01-22T01:52:38.442Z,1013.27
2018-01-22T01:53:38.455Z,1013.20
2018-01-22T01:54:59.469Z,1013.21
2018-01-22T01:55:38.502Z,1013.24
2018-01-22T01:56:38.502Z,1013.20
2018-01-22T01:57:38.521Z,1013.21
2018-01-22T01:58:38.536Z,1013.17
2018-01-22T01:59:38.552Z,1013.15
2018-01-22T02:00:59.591Z,1013.14
2018-01-22T02:01:38.591Z,1013.11
2018-01-22T02:02:38.609Z,1013.07
2018-01-22T02:03:38.625Z,1013.08
2018-01-22T02:04:38.652Z,1013.07
2018-01-22T02:05:38.675Z,1013.03
2018-01-22T02:06:59.704Z,1013.06
2018-01-22T02:07:38.707Z,1013.03
2018-01-22T02:08:38.778Z,1013.01
2018-01-22T02:09:38.757Z,1012.96
2018-01-22T02:10:38.768Z,1012.96
2018-01-22T02:11:38.787Z,1012.94
2018-01-22T02:12:59.822Z,1013.01
2018-01-22T02:13:38.826Z,1012.94
2018-01-22T02:14:38.843Z,1012.93
2018-01-22T02:15:38.862Z,1012.86
2018-01-22T02:16:38.877Z,1012.84
2018-01-22T02:17:38.895Z,1012.79
2018-01-22T02:19:00.693Z,1012.76
2018-01-22T02:19:38.931Z,1012.74
2018-01-22T02:20:38.950Z,1012.74
2018-01-22T02:21:38.965Z,1012.69
2018-01-22T02:22:38.984Z,1012.68
2018-01-22T02:23:39.011Z,1012.63
2018-01-22T02:25:00.047Z,1012.67
2018-01-22T02:25:39.036Z,1012.59
2018-01-22T02:26:39.056Z,1012.61
2018-01-22T02:27:39.077Z,1012.59
2018-01-22T02:28:39.095Z,1012.63
2018-01-22T02:29:39.115Z,1012.63
2018-01-22T02:31:00.154Z,1012.58
2018-01-22T02:31:39.153Z,1012.52
2018-01-22T02:32:39.174Z,1012.51
2018-01-22T02:33:39.192Z,1012.58
2018-01-22T02:34:39.208Z,1012.52
2018-01-22T02:35:39.235Z,1012.55
2018-01-22T02:37:00.261Z,1012.55
2018-01-22T02:37:39.262Z,1012.53
2018-01-22T02:38:39.281Z,1012.51
2018-01-22T02:39:39.302Z,1012.47
2018-01-22T02:40:39.337Z,1012.48
2018-01-22T02:41:39.343Z,1012.46
2018-01-22T02:43:00.373Z,1012.43
2018-01-22T02:43:39.374Z,1012.38
2018-01-22T02:44:39.403Z,1012.39
2018-01-22T02:45:39.418Z,1012.40
2018-01-22T02:46:39.442Z,1012.40
2018-01-22T02:47:39.445Z,1012.37
2018-01-22T02:49:00.504Z,1012.41
2018-01-22T02:49:39.494Z,1012.44
2018-01-22T02:50:39.511Z,1012.44
2018-01-22T02:51:39.531Z,1012.38
2018-01-22T02:52:39.550Z,1012.40
2018-01-22T02:53:39.574Z,1012.35
2018-01-22T02:55:00.601Z,1012.32
2018-01-22T02:55:39.602Z,1012.30
2018-01-22T02:56:39.643Z,1012.30
2018-01-22T02:57:39.644Z,1012.27
2018-01-22T02:58:39.652Z,1012.25
2018-01-22T02:59:39.676Z,1012.26
2018-01-22T03:01:00.708Z,1012.25
2018-01-22T03:01:39.714Z,1012.25
2018-01-22T03:02:39.741Z,1012.22
2018-01-22T03:03:39.755Z,1012.21
2018-01-22T03:04:39.771Z,1012.20
2018-01-22T03:05:39.787Z,1012.18
2018-01-22T03:07:00.827Z,1012.19
2018-01-22T03:07:39.827Z,1012.15
2018-01-22T03:08:39.844Z,1012.15
2018-01-22T03:09:39.870Z,1012.18
2018-01-22T03:10:39.883Z,1012.12
2018-01-22T03:11:39.923Z,1012.11
2018-01-22T03:13:00.938Z,1012.12
2018-01-22T03:13:39.979Z,1012.08
2018-01-22T03:14:39.968Z,1012.10
2018-01-22T03:15:39.977Z,1012.06
2018-01-22T03:16:40.002Z,1012.04
2018-01-22T03:17:40.014Z,1012.07
2018-01-22T03:19:01.050Z,1012.07
2018-01-22T03:19:40.058Z,1012.10
2018-01-22T03:20:40.069Z,1012.13
2018-01-22T03:21:40.098Z,1012.14
2018-01-22T03:22:40.109Z,1012.13
2018-01-22T03:23:40.133Z,1012.13
2018-01-22T03:25:01.162Z,1012.13
2018-01-22T03:25:40.171Z,1012.13
2018-01-22T03:26:40.206Z,1012.13
2018-01-22T03:27:40.207Z,1012.11
2018-01-22T03:28:40.224Z,1012.17
2018-01-22T03:29:40.242Z,1012.16
2018-01-22T03:31:01.279Z,1012.15
2018-01-22T03:31:40.284Z,1012.11
2018-01-22T03:32:40.303Z,1012.15
2018-01-22T03:33:40.333Z,1012.14
2018-01-22T03:34:40.350Z,1012.18
2018-01-22T03:35:40.366Z,1012.15
2018-01-22T03:37:01.390Z,1012.12
2018-01-22T03:37:40.505Z,1012.09
2018-01-22T03:38:40.420Z,1012.07
2018-01-22T03:39:40.450Z,1012.05
2018-01-22T03:40:40.457Z,1012.07
2018-01-22T03:41:40.470Z,1012.09
2018-01-22T03:43:01.507Z,1012.09
2018-01-22T03:43:40.507Z,1012.04
2018-01-22T03:44:40.526Z,1012.01
2018-01-22T03:45:40.552Z,1011.99
2018-01-22T03:46:40.565Z,1011.98
2018-01-22T03:47:40.590Z,1011.98
2018-01-22T03:49:01.628Z,1011.94
2018-01-22T03:49:40.626Z,1011.99
2018-01-22T03:50:40.739Z,1011.97
2018-01-22T03:51:40.661Z,1011.99
2018-01-22T03:52:40.696Z,1011.98
2018-01-22T03:53:40.703Z,1012.01
2018-01-22T03:55:01.729Z,1011.98
2018-01-22T03:55:40.789Z,1011.95
2018-01-22T03:56:40.757Z,1011.92
2018-01-22T03:57:40.770Z,1011.91
2018-01-22T03:58:40.797Z,1011.89
2018-01-22T03:59:40.815Z,1011.87
2018-01-22T04:01:01.847Z,1011.88
2018-01-22T04:01:40.850Z,1011.89
2018-01-22T04:02:40.872Z,1011.79
2018-01-22T04:03:40.890Z,1011.81
2018-01-22T04:04:40.901Z,1011.82
2018-01-22T04:05:40.922Z,1011.79
2018-01-22T04:07:01.973Z,1011.77
2018-01-22T04:07:40.960Z,1011.80
2018-01-22T04:08:40.991Z,1011.77
2018-01-22T04:09:41.010Z,1011.80
2018-01-22T04:10:41.023Z,1011.73
2018-01-22T04:11:41.044Z,1011.75
2018-01-22T04:13:02.076Z,1011.76
2018-01-22T04:13:41.080Z,1011.74
2018-01-22T04:14:41.103Z,1011.80
2018-01-22T04:15:41.119Z,1011.76
2018-01-22T04:16:41.143Z,1011.78
2018-01-22T04:17:41.158Z,1011.72
2018-01-22T04:19:02.191Z,1011.68
2018-01-22T04:19:41.204Z,1011.68
2018-01-22T04:20:41.215Z,1011.68
2018-01-22T04:21:41.239Z,1011.63
2018-01-22T04:22:41.257Z,1011.67
2018-01-22T04:23:41.270Z,1011.59
2018-01-22T04:25:02.299Z,1011.65
2018-01-22T04:25:41.305Z,1011.64
2018-01-22T04:26:41.325Z,1011.59
2018-01-22T04:27:41.343Z,1011.60
2018-01-22T04:28:41.367Z,1011.58
2018-01-22T04:29:41.376Z,1011.58
2018-01-22T04:31:02.429Z,1011.59
2018-01-22T04:31:41.416Z,1011.55
2018-01-22T04:32:41.435Z,1011.52
2018-01-22T04:33:41.457Z,1011.51
2018-01-22T04:34:41.482Z,1011.45
2018-01-22T04:35:41.502Z,1011.45
2018-01-22T04:37:02.524Z,1011.38
2018-01-22T04:37:41.537Z,1011.38
2018-01-22T04:38:41.554Z,1011.35
2018-01-22T04:39:41.579Z,1011.22
2018-01-22T04:40:41.589Z,1011.24
2018-01-22T04:41:41.612Z,1011.21
2018-01-22T04:43:02.641Z,1011.19
2018-01-22T04:43:41.657Z,1011.18
2018-01-22T04:44:41.662Z,1011.13
2018-01-22T04:45:41.683Z,1011.16
2018-01-22T04:46:41.705Z,1011.17
2018-01-22T04:47:41.740Z,1011.16
2018-01-22T04:49:02.755Z,1011.15
2018-01-22T04:49:41.762Z,1011.13
2018-01-22T04:50:41.784Z,1011.13
2018-01-22T04:51:41.807Z,1011.08
2018-01-22T04:52:41.816Z,1011.10
2018-01-22T04:53:41.879Z,1010.98
2018-01-22T04:55:02.881Z,1010.94
2018-01-22T04:55:41.893Z,1010.94
2018-01-22T04:56:41.900Z,1010.94
2018-01-22T04:57:41.906Z,1010.96
2018-01-22T04:58:41.927Z,1010.97
2018-01-22T04:59:41.951Z,1010.96
2018-01-22T05:01:02.989Z,1010.96
2018-01-22T05:01:41.996Z,1010.95
2018-01-22T05:02:42.004Z,1010.92
2018-01-22T05:03:42.049Z,1010.96
2018-01-22T05:04:42.045Z,1010.87
2018-01-22T05:05:42.063Z,1010.86
2018-01-22T05:07:03.095Z,1010.84
2018-01-22T05:07:42.102Z,1010.80
2018-01-22T05:08:42.252Z,1010.79
2018-01-22T05:09:42.143Z,1010.77
2018-01-22T05:10:42.272Z,1010.73
2018-01-22T05:11:42.181Z,1010.71
2018-01-22T05:13:03.219Z,1010.64
2018-01-22T05:13:42.219Z,1010.64
2018-01-22T05:14:42.238Z,1010.60
2018-01-22T05:15:42.252Z,1010.67
2018-01-22T05:16:42.281Z,1010.62
2018-01-22T05:17:42.285Z,1010.65
2018-01-22T05:19:03.321Z,1010.61
2018-01-22T05:19:42.339Z,1010.56
2018-01-22T05:20:42.347Z,1010.53
2018-01-22T05:21:42.379Z,1010.53
2018-01-22T05:22:42.384Z,1010.52
2018-01-22T05:23:42.460Z,1010.51
2018-01-22T05:25:03.449Z,1010.52
2018-01-22T05:25:42.443Z,1010.56
2018-01-22T05:26:42.465Z,1010.52
2018-01-22T05:27:42.477Z,1010.52
2018-01-22T05:28:42.495Z,1010.51
2018-01-22T05:29:42.520Z,1010.46
2018-01-22T05:31:03.555Z,1010.44
2018-01-22T05:31:42.545Z,1010.41
2018-01-22T05:32:42.638Z,1010.40
2018-01-22T05:33:42.588Z,1010.45
2018-01-22T05:34:42.693Z,1010.43
2018-01-22T05:35:42.638Z,1010.48
2018-01-22T05:37:03.664Z,1010.46
2018-01-22T05:37:42.677Z,1010.45
2018-01-22T05:38:42.703Z,1010.47
2018-01-22T05:39:42.796Z,1010.44
2018-01-22T05:40:42.720Z,1010.45
2018-01-22T05:41:42.745Z,1010.48
2018-01-22T05:43:03.786Z,1010.47
2018-01-22T05:43:42.785Z,1010.51
2018-01-22T05:44:42.907Z,1010.49
2018-01-22T05:45:42.833Z,1010.48
2018-01-22T05:46:42.837Z,1010.47
2018-01-22T05:47:42.856Z,1010.52
2018-01-22T05:49:03.914Z,1010.48
2018-01-22T05:49:42.905Z,1010.52
2018-01-22T05:50:42.908Z,1010.51
2018-01-22T05:51:42.921Z,1010.56
2018-01-22T05:52:42.952Z,1010.54
2018-01-22T05:53:42.968Z,1010.58
2018-01-22T05:55:04.017Z,1010.59
2018-01-22T05:55:43.063Z,1010.61
2018-01-22T05:56:43.032Z,1010.56
2018-01-22T05:57:43.046Z,1010.60
2018-01-22T05:58:43.074Z,1010.60
2018-01-22T05:59:43.086Z,1010.59
2018-01-22T06:01:04.117Z,1010.57
2018-01-22T06:01:43.119Z,1010.56
2018-01-22T06:02:43.136Z,1010.54
2018-01-22T06:03:43.150Z,1010.50
2018-01-22T06:04:43.170Z,1010.50
2018-01-22T06:05:43.205Z,1010.45
2018-01-22T06:07:04.224Z,1010.41
2018-01-22T06:07:43.230Z,1010.39
2018-01-22T06:08:43.253Z,1010.39
2018-01-22T06:09:43.272Z,1010.37
2018-01-22T06:10:43.291Z,1010.32
2018-01-22T06:11:43.309Z,1010.37
2018-01-22T06:13:04.345Z,1010.34
2018-01-22T06:13:43.359Z,1010.34
2018-01-22T06:14:43.363Z,1010.34
2018-01-22T06:15:43.380Z,1010.30
2018-01-22T06:16:43.408Z,1010.26
2018-01-22T06:17:43.415Z,1010.28
2018-01-22T06:19:04.454Z,1010.25
2018-01-22T06:19:43.470Z,1010.26
2018-01-22T06:20:43.472Z,1010.24
2018-01-22T06:21:43.493Z,1010.22
2018-01-22T06:22:43.514Z,1010.22
2018-01-22T06:23:43.535Z,1010.21
2018-01-22T06:25:04.564Z,1010.16
2018-01-22T06:25:43.568Z,1010.11
2018-01-22T06:26:43.592Z,1010.06
2018-01-22T06:27:43.600Z,1010.08
2018-01-22T06:28:43.635Z,1010.08
2018-01-22T06:29:43.646Z,1010.05
2018-01-22T06:31:04.672Z,1010.08
2018-01-22T06:31:43.680Z,1010.14
2018-01-22T06:32:43.700Z,1010.09
2018-01-22T06:33:43.739Z,1010.07
2018-01-22T06:34:43.737Z,1009.96
2018-01-22T06:35:43.765Z,1009.94
2018-01-22T06:37:04.799Z,1009.86
2018-01-22T06:37:43.819Z,1009.87
2018-01-22T06:38:43.811Z,1009.84
2018-01-22T06:39:43.839Z,1009.85
2018-01-22T06:40:43.853Z,1009.85
2018-01-22T06:41:43.865Z,1009.85
2018-01-22T06:43:04.910Z,1009.85
2018-01-22T06:43:43.906Z,1009.82
2018-01-22T06:44:43.925Z,1009.82
2018-01-22T06:45:43.943Z,1009.81
2018-01-22T06:46:43.959Z,1009.80
2018-01-22T06:47:43.979Z,1009.87
2018-01-22T06:49:05.015Z,1009.87
2018-01-22T06:49:44.015Z,1009.81
2018-01-22T06:50:44.047Z,1009.79
2018-01-22T06:51:44.056Z,1009.73
2018-01-22T06:52:44.178Z,1009.73
2018-01-22T06:53:44.092Z,1009.70
2018-01-22T06:55:05.131Z,1009.70
2018-01-22T06:55:44.136Z,1009.71
2018-01-22T06:56:44.160Z,1009.75
2018-01-22T06:57:44.193Z,1009.73
2018-01-22T06:58:44.183Z,1009.76
2018-01-22T06:59:44.219Z,1009.70
2018-01-22T07:01:05.248Z,1009.71
2018-01-22T07:01:44.253Z,1009.69
2018-01-22T07:02:44.276Z,1009.70
2018-01-22T07:03:45.191Z,1009.65
2018-01-22T07:04:44.302Z,1009.68
2018-01-22T07:05:44.340Z,1009.68
2018-01-22T07:07:05.360Z,1009.71
2018-01-22T07:07:44.364Z,1009.77
2018-01-22T07:08:44.375Z,1009.75
2018-01-22T07:09:44.428Z,1009.78
2018-01-22T07:10:44.411Z,1009.80
2018-01-22T07:11:44.437Z,1009.73
2018-01-22T07:13:05.490Z,1009.73
2018-01-22T07:13:44.467Z,1009.71
2018-01-22T07:14:44.488Z,1009.72
2018-01-22T07:15:44.517Z,1009.76
2018-01-22T07:16:44.536Z,1009.72
2018-01-22T07:17:44.554Z,1009.76
2018-01-22T07:19:05.581Z,1009.82
2018-01-22T07:19:44.589Z,1009.81
2018-01-22T07:20:44.616Z,1009.85
2018-01-22T07:21:44.630Z,1009.89
2018-01-22T07:22:44.652Z,1009.90
2018-01-22T07:23:44.669Z,1009.91
2018-01-22T07:25:05.700Z,1009.96
2018-01-22T07:25:44.695Z,1009.93
2018-01-22T07:26:44.723Z,1009.97
2018-01-22T07:27:44.739Z,1010.00
2018-01-22T07:28:44.760Z,1010.04
2018-01-22T07:29:44.875Z,1010.05
2018-01-22T07:31:05.809Z,1010.11
2018-01-22T07:31:44.823Z,1010.10
2018-01-22T07:32:44.861Z,1010.13
2018-01-22T07:33:44.916Z,1010.14
2018-01-22T07:34:44.860Z,1010.15
2018-01-22T07:35:44.903Z,1010.16
2018-01-22T07:37:05.915Z,1010.17
2018-01-22T07:37:44.922Z,1010.25
2018-01-22T07:38:44.948Z,1010.20
2018-01-22T07:39:44.964Z,1010.24
2018-01-22T07:40:45.008Z,1010.20
2018-01-22T07:41:45.016Z,1010.19
2018-01-22T07:43:06.036Z,1010.13
2018-01-22T07:43:45.043Z,1010.17
2018-01-22T07:44:45.058Z,1010.13
2018-01-22T07:45:45.072Z,1010.09
2018-01-22T07:46:45.095Z,1010.01
2018-01-22T07:47:45.121Z,1010.03
2018-01-22T07:49:06.147Z,1010.02
2018-01-22T07:49:45.153Z,1009.98
2018-01-22T07:50:45.172Z,1009.97
2018-01-22T07:51:45.185Z,1010.00
2018-01-22T07:52:45.287Z,1010.05
2018-01-22T07:53:45.227Z,1010.04
2018-01-22T07:55:06.267Z,1010.05
2018-01-22T07:55:45.267Z,1010.02
2018-01-22T07:56:45.279Z,1010.02
2018-01-22T07:57:45.304Z,1010.02
2018-01-22T07:58:45.320Z,1010.03
2018-01-22T07:59:45.342Z,1010.01
2018-01-22T08:01:06.382Z,1010.04
2018-01-22T08:01:45.379Z,1010.05
2018-01-22T08:02:45.396Z,1010.03
2018-01-22T08:03:45.426Z,1010.01
2018-01-22T08:04:45.438Z,1009.98
2018-01-22T08:05:45.454Z,1009.94
2018-01-22T08:07:06.490Z,1009.90
2018-01-22T08:07:45.496Z,1009.89
2018-01-22T08:08:45.513Z,1009.87
2018-01-22T08:09:45.535Z,1009.87
2018-01-22T08:10:45.547Z,1009.82
2018-01-22T08:11:45.583Z,1009.85
2018-01-22T08:13:06.623Z,1009.88
2018-01-22T08:13:45.606Z,1009.90
2018-01-22T08:14:45.627Z,1009.92
2018-01-22T08:15:45.652Z,1009.91
2018-01-22T08:16:45.672Z,1009.91
2018-01-22T08:17:45.688Z,1009.90
2018-01-22T08:19:06.720Z,1009.90
2018-01-22T08:19:45.726Z,1009.88
2018-01-22T08:20:45.743Z,1009.92
2018-01-22T08:21:45.768Z,1009.86
2018-01-22T08:22:45.778Z,1009.86
2018-01-22T08:23:45.807Z,1009.86
2018-01-22T08:25:06.839Z,1009.84
2018-01-22T08:25:45.832Z,1009.92
2018-01-22T08:26:45.874Z,1009.92
2018-01-22T08:27:45.876Z,1009.96
2018-01-22T08:28:45.897Z,1010.00
2018-01-22T08:29:45.940Z,1010.00
2018-01-22T08:31:06.949Z,1010.04
2018-01-22T08:31:45.951Z,1010.01
2018-01-22T08:32:45.978Z,1009.98
2018-01-22T08:33:45.993Z,1009.92
2018-01-22T08:34:46.038Z,1009.85
2018-01-22T08:35:46.026Z,1009.87
2018-01-22T08:37:07.067Z,1009.81
2018-01-22T08:37:46.069Z,1009.81
2018-01-22T08:38:46.094Z,1009.79
2018-01-22T08:39:46.108Z,1009.78
2018-01-22T08:40:46.138Z,1009.72
2018-01-22T08:41:46.142Z,1009.75
2018-01-22T08:43:07.182Z,1009.73
2018-01-22T08:43:46.186Z,1009.71
2018-01-22T08:44:46.207Z,1009.68
2018-01-22T08:45:46.218Z,1009.64
2018-01-22T08:46:46.236Z,1009.65
2018-01-22T08:47:46.327Z,1009.60
2018-01-22T08:49:07.295Z,1009.55
2018-01-22T08:49:46.320Z,1009.52
2018-01-22T08:50:46.327Z,1009.48
2018-01-22T08:51:46.335Z,1009.49
2018-01-22T08:52:46.351Z,1009.52
2018-01-22T08:53:46.373Z,1009.49
2018-01-22T08:55:07.414Z,1009.47
2018-01-22T08:55:46.414Z,1009.48
2018-01-22T08:56:46.431Z,1009.48
2018-01-22T08:57:46.450Z,1009.50
2018-01-22T08:58:46.491Z,1009.49
2018-01-22T08:59:46.493Z,1009.52
2018-01-22T09:01:07.523Z,1009.53
2018-01-22T09:01:46.528Z,1009.55
2018-01-22T09:02:46.574Z,1009.55
2018-01-22T09:03:46.574Z,1009.54
2018-01-22T09:04:46.585Z,1009.53
2018-01-22T09:05:46.646Z,1009.49
2018-01-22T09:07:07.638Z,1009.46
2018-01-22T09:07:46.644Z,1009.44
2018-01-22T09:08:46.675Z,1009.44
2018-01-22T09:09:46.683Z,1009.44
2018-01-22T09:10:46.704Z,1009.41
2018-01-22T09:11:46.728Z,1009.43
2018-01-22T09:13:07.754Z,1009.39
2018-01-22T09:13:46.801Z,1009.29
2018-01-22T09:14:46.782Z,1009.33
2018-01-22T09:15:46.814Z,1009.32
2018-01-22T09:16:46.816Z,1009.35
2018-01-22T09:17:46.852Z,1009.29
2018-01-22T09:19:07.866Z,1009.34
2018-01-22T09:19:46.884Z,1009.36
2018-01-22T09:20:46.904Z,1009.34
2018-01-22T09:21:46.917Z,1009.40
2018-01-22T09:22:46.936Z,1009.41
2018-01-22T09:23:46.960Z,1009.41
2018-01-22T09:25:07.988Z,1009.44
2018-01-22T09:25:46.995Z,1009.48
2018-01-22T09:26:47.011Z,1009.44
2018-01-22T09:27:47.036Z,1009.46
2018-01-22T09:28:47.049Z,1009.49
2018-01-22T09:29:47.074Z,1009.47
2018-01-22T09:31:08.115Z,1009.48
2018-01-22T09:31:47.120Z,1009.47
2018-01-22T09:32:47.131Z,1009.46
2018-01-22T09:33:47.149Z,1009.46
2018-01-22T09:34:47.175Z,1009.51
2018-01-22T09:35:47.188Z,1009.48
2018-01-22T09:37:08.292Z,1009.45
2018-01-22T09:37:47.228Z,1009.42
2018-01-22T09:38:47.251Z,1009.40
2018-01-22T09:39:47.269Z,1009.44
2018-01-22T09:40:47.288Z,1009.42
2018-01-22T09:41:47.306Z,1009.35
2018-01-22T09:43:08.351Z,1009.35
2018-01-22T09:43:47.357Z,1009.34
2018-01-22T09:44:47.368Z,1009.30
2018-01-22T09:45:47.391Z,1009.27
2018-01-22T09:46:47.414Z,1009.29
2018-01-22T09:47:47.427Z,1009.26
2018-01-22T09:49:08.469Z,1009.26
2018-01-22T09:49:47.470Z,1009.25
2018-01-22T09:50:47.507Z,1009.29
2018-01-22T09:51:47.522Z,1009.28
2018-01-22T09:52:47.532Z,1009.32
2018-01-22T09:53:47.553Z,1009.33
2018-01-22T09:55:08.589Z,1009.27
2018-01-22T09:55:47.600Z,1009.25
2018-01-22T09:56:47.614Z,1009.23
2018-01-22T09:57:47.638Z,1009.25
2018-01-22T09:58:47.648Z,1009.23
2018-01-22T09:59:47.667Z,1009.26
2018-01-22T10:01:08.713Z,1009.26
2018-01-22T10:01:47.719Z,1009.30
2018-01-22T10:02:47.740Z,1009.33
2018-01-22T10:03:47.769Z,1009.31
2018-01-22T10:04:47.787Z,1009.33
2018-01-22T10:05:47.802Z,1009.33
2018-01-22T10:07:08.843Z,1009.34
2018-01-22T10:07:47.834Z,1009.27
2018-01-22T10:08:47.868Z,1009.28
2018-01-22T10:09:47.876Z,1009.29
2018-01-22T10:10:47.897Z,1009.25
2018-01-22T10:11:47.921Z,1009.20
2018-01-22T10:13:08.949Z,1009.19
2018-01-22T10:13:47.964Z,1009.18
2018-01-22T10:14:47.992Z,1009.17
2018-01-22T10:15:47.999Z,1009.08
2018-01-22T10:16:48.098Z,1009.07
2018-01-22T10:17:48.039Z,1009.06
2018-01-22T10:19:09.082Z,1009.04
2018-01-22T10:19:48.082Z,1009.06
2018-01-22T10:20:48.100Z,1009.02
2018-01-22T10:21:48.116Z,1008.96
2018-01-22T10:22:48.147Z,1008.95
2018-01-22T10:23:48.160Z,1008.90
2018-01-22T10:25:09.196Z,1008.95
2018-01-22T10:25:48.201Z,1008.96
2018-01-22T10:26:48.218Z,1008.95
2018-01-22T10:27:48.262Z,1008.94
2018-01-22T10:28:48.261Z,1009.00
2018-01-22T10:29:48.406Z,1009.04
2018-01-22T10:31:09.326Z,1009.04
2018-01-22T10:31:48.346Z,1009.06
2018-01-22T10:32:48.342Z,1009.03
2018-01-22T10:33:48.367Z,1009.04
2018-01-22T10:34:48.388Z,1008.98
2018-01-22T10:35:48.428Z,1009.00
2018-01-22T10:37:09.443Z,1008.98
2018-01-22T10:37:48.435Z,1008.93
2018-01-22T10:38:48.457Z,1008.96
2018-01-22T10:39:48.484Z,1008.96
2018-01-22T10:40:48.522Z,1008.94
2018-01-22T10:41:48.520Z,1008.95
2018-01-22T10:43:09.554Z,1008.94
2018-01-22T10:43:48.586Z,1008.92
2018-01-22T10:44:48.580Z,1008.90
2018-01-22T10:45:48.602Z,1008.87
2018-01-22T10:46:48.624Z,1008.89
2018-01-22T10:47:48.652Z,1008.85
2018-01-22T10:49:09.676Z,1008.90
2018-01-22T10:49:48.676Z,1008.88
2018-01-22T10:50:48.698Z,1008.88
2018-01-22T10:51:48.732Z,1008.90
2018-01-22T10:52:48.738Z,1008.90
2018-01-22T10:53:49.692Z,1008.93
2018-01-22T10:55:09.802Z,1008.86
2018-01-22T10:55:48.836Z,1008.84
2018-01-22T10:56:48.829Z,1008.77
2018-01-22T10:57:48.851Z,1008.77
2018-01-22T10:58:48.865Z,1008.72
2018-01-22T10:59:48.931Z,1008.71
2018-01-22T11:01:09.915Z,1008.74
2018-01-22T11:01:48.933Z,1008.70
2018-01-22T11:02:48.945Z,1008.67
2018-01-22T11:03:48.966Z,1008.61
2018-01-22T11:04:48.989Z,1008.58
2018-01-22T11:05:48.999Z,1008.51
2018-01-22T11:07:10.041Z,1008.54
2018-01-22T11:07:49.036Z,1008.51
2018-01-22T11:08:49.072Z,1008.53
2018-01-22T11:09:49.081Z,1008.49
2018-01-22T11:10:49.114Z,1008.50
2018-01-22T11:11:49.134Z,1008.42
2018-01-22T11:13:10.158Z,1008.44
2018-01-22T11:13:49.169Z,1008.39
2018-01-22T11:14:49.189Z,1008.41
2018-01-22T11:15:49.204Z,1008.38
2018-01-22T11:16:49.241Z,1008.27
2018-01-22T11:17:49.240Z,1008.33
2018-01-22T11:19:10.291Z,1008.28
2018-01-22T11:19:49.290Z,1008.23
2018-01-22T11:20:49.302Z,1008.26
2018-01-22T11:21:49.320Z,1008.23
2018-01-22T11:22:49.356Z,1008.18
2018-01-22T11:23:49.360Z,1008.16
2018-01-22T11:25:10.405Z,1008.15
2018-01-22T11:25:49.402Z,1008.19
2018-01-22T11:26:49.436Z,1008.13
2018-01-22T11:27:49.452Z,1008.09
2018-01-22T11:28:49.473Z,1008.06
2018-01-22T11:29:49.484Z,1008.06
2018-01-22T11:31:10.529Z,1008.04
2018-01-22T11:31:49.521Z,1008.01
2018-01-22T11:32:49.547Z,1007.97
2018-01-22T11:33:49.587Z,1007.96
2018-01-22T11:34:49.594Z,1008.02
2018-01-22T11:35:49.611Z,1008.11
2018-01-22T11:37:10.642Z,1008.06
2018-01-22T11:37:49.653Z,1008.11
2018-01-22T11:38:49.674Z,1008.09
2018-01-22T11:39:49.682Z,1008.07
2018-01-22T11:40:49.703Z,1008.01
2018-01-22T11:41:49.739Z,1008.01
2018-01-22T11:43:10.778Z,1007.93
2018-01-22T11:43:49.765Z,1007.91
2018-01-22T11:44:49.792Z,1007.87
2018-01-22T11:45:49.816Z,1007.85
2018-01-22T11:46:49.831Z,1007.91
2018-01-22T11:47:49.849Z,1007.91
2018-01-22T11:49:10.887Z,1007.85
2018-01-22T11:49:49.894Z,1007.84
2018-01-22T11:50:49.907Z,1007.84
2018-01-22T11:51:49.930Z,1007.79
2018-01-22T11:52:49.952Z,1007.73
2018-01-22T11:53:49.975Z,1007.73
2018-01-22T11:55:11.007Z,1007.72
2018-01-22T11:55:50.107Z,1007.73
2018-01-22T11:56:50.028Z,1007.71
2018-01-22T11:57:50.042Z,1007.69
2018-01-22T11:58:50.072Z,1007.75
2018-01-22T11:59:50.108Z,1007.75
2018-01-22T12:01:11.139Z,1007.75
2018-01-22T12:01:50.128Z,1007.74
2018-01-22T12:02:50.159Z,1007.74
2018-01-22T12:03:50.166Z,1007.73
2018-01-22T12:04:50.186Z,1007.74
2018-01-22T12:05:50.215Z,1007.70